sensor_id;sensor_type;location;lat;lon;timestamp;P1;durP1;ratioP1;P2;durP2;ratioP2
46086;SDS011;31824;49.648;8.640;2022-12-18T00:06:10;15.07;;;5.70;;
46086;SDS011;31824;49.648;8.640;2022-12-18T00:09:14;10.10;;;4.88;;
46086;SDS011;31824;49.648;8.640;2022-12-18T00:12:16;0.73;;;0.73;;
46086;SDS011;31824;49.648;8.640;2022-12-18T00:15:19;1.70;;;1.45;;
46086;SDS011;31824;49.648;8.640;2022-12-18T00:18:21;5.00;;;3.13;;
46086;SDS011;31824;49.648;8.640;2022-12-18T00:21:22;5.40;;;4.80;;
46086;SDS011;31824;49.648;8.640;2022-12-18T00:24:25;5.20;;;3.25;;
46086;SDS011;31824;49.648;8.640;2022-12-18T00:27:27;5.13;;;3.25;;
46086;SDS011;31824;49.648;8.640;2022-12-18T00:30:29;5.30;;;2.97;;
46086;SDS011;31824;49.648;8.640;2022-12-18T00:33:31;8.48;;;4.43;;
46086;SDS011;31824;49.648;8.640;2022-12-18T00:36:34;3.55;;;2.15;;
46086;SDS011;31824;49.648;8.640;2022-12-18T00:39:37;5.15;;;3.47;;
46086;SDS011;31824;49.648;8.640;2022-12-18T00:42:39;7.32;;;3.97;;
46086;SDS011;31824;49.648;8.640;2022-12-18T00:45:59;7.00;;;5.10;;
46086;SDS011;31824;49.648;8.640;2022-12-18T00:49:01;5.10;;;3.30;;
46086;SDS011;31824;49.648;8.640;2022-12-18T00:52:03;6.63;;;2.35;;
46086;SDS011;31824;49.648;8.640;2022-12-18T00:55:06;5.28;;;1.90;;
46086;SDS011;31824;49.648;8.640;2022-12-18T00:58:09;10.43;;;4.45;;
46086;SDS011;31824;49.648;8.640;2022-12-18T01:01:12;4.90;;;2.75;;
46086;SDS011;31824;49.648;8.640;2022-12-18T01:04:14;5.93;;;3.50;;
46086;SDS011;31824;49.648;8.640;2022-12-18T01:07:19;11.57;;;3.95;;
46086;SDS011;31824;49.648;8.640;2022-12-18T01:10:22;7.47;;;4.18;;
46086;SDS011;31824;49.648;8.640;2022-12-18T01:13:24;6.78;;;4.00;;
46086;SDS011;31824;49.648;8.640;2022-12-18T01:16:26;4.10;;;3.33;;
46086;SDS011;31824;49.648;8.640;2022-12-18T01:19:28;7.43;;;4.30;;
46086;SDS011;31824;49.648;8.640;2022-12-18T01:22:30;1.95;;;1.75;;
46086;SDS011;31824;49.648;8.640;2022-12-18T01:25:37;5.78;;;3.90;;
46086;SDS011;31824;49.648;8.640;2022-12-18T01:28:42;4.07;;;3.08;;
46086;SDS011;31824;49.648;8.640;2022-12-18T01:31:45;8.48;;;4.18;;
46086;SDS011;31824;49.648;8.640;2022-12-18T01:34:46;6.28;;;4.03;;
46086;SDS011;31824;49.648;8.640;2022-12-18T01:37:48;6.28;;;2.70;;
46086;SDS011;31824;49.648;8.640;2022-12-18T01:40:57;6.80;;;4.25;;
46086;SDS011;31824;49.648;8.640;2022-12-18T01:43:59;5.72;;;5.22;;
46086;SDS011;31824;49.648;8.640;2022-12-18T01:47:01;9.25;;;4.97;;
46086;SDS011;31824;49.648;8.640;2022-12-18T01:50:04;9.13;;;4.70;;
46086;SDS011;31824;49.648;8.640;2022-12-18T01:53:11;6.40;;;3.38;;
46086;SDS011;31824;49.648;8.640;2022-12-18T01:56:17;1.88;;;1.73;;
46086;SDS011;31824;49.648;8.640;2022-12-18T01:59:21;6.65;;;3.30;;
46086;SDS011;31824;49.648;8.640;2022-12-18T02:02:23;10.77;;;4.25;;
46086;SDS011;31824;49.648;8.640;2022-12-18T02:05:29;18.25;;;4.55;;
46086;SDS011;31824;49.648;8.640;2022-12-18T02:08:45;5.78;;;3.45;;
46086;SDS011;31824;49.648;8.640;2022-12-18T02:11:56;4.90;;;3.33;;
46086;SDS011;31824;49.648;8.640;2022-12-18T02:15:07;4.47;;;3.67;;
46086;SDS011;31824;49.648;8.640;2022-12-18T02:18:15;2.60;;;2.13;;
46086;SDS011;31824;49.648;8.640;2022-12-18T02:21:23;5.00;;;3.92;;
46086;SDS011;31824;49.648;8.640;2022-12-18T02:24:33;3.33;;;1.55;;
46086;SDS011;31824;49.648;8.640;2022-12-18T02:27:42;3.53;;;2.75;;
46086;SDS011;31824;49.648;8.640;2022-12-18T02:30:48;11.07;;;4.70;;
46086;SDS011;31824;49.648;8.640;2022-12-18T02:33:54;4.07;;;2.13;;
46086;SDS011;31824;49.648;8.640;2022-12-18T02:37:02;3.60;;;3.08;;
46086;SDS011;31824;49.648;8.640;2022-12-18T02:40:09;13.15;;;4.65;;
46086;SDS011;31824;49.648;8.640;2022-12-18T02:43:15;6.95;;;3.42;;
46086;SDS011;31824;49.648;8.640;2022-12-18T02:46:23;2.92;;;1.75;;
46086;SDS011;31824;49.648;8.640;2022-12-18T02:49:31;2.30;;;1.67;;
46086;SDS011;31824;49.648;8.640;2022-12-18T02:52:39;3.20;;;2.72;;
46086;SDS011;31824;49.648;8.640;2022-12-18T02:55:51;5.97;;;2.45;;
46086;SDS011;31824;49.648;8.640;2022-12-18T02:59:06;7.13;;;4.70;;
46086;SDS011;31824;49.648;8.640;2022-12-18T03:02:23;3.10;;;2.83;;
46086;SDS011;31824;49.648;8.640;2022-12-18T03:05:31;3.10;;;2.60;;
46086;SDS011;31824;49.648;8.640;2022-12-18T03:08:38;3.80;;;2.75;;
46086;SDS011;31824;49.648;8.640;2022-12-18T03:15:11;3.15;;;2.35;;
46086;SDS011;31824;49.648;8.640;2022-12-18T03:18:21;10.15;;;4.28;;
46086;SDS011;31824;49.648;8.640;2022-12-18T03:21:28;12.18;;;5.35;;
46086;SDS011;31824;49.648;8.640;2022-12-18T03:24:35;6.60;;;3.08;;
46086;SDS011;31824;49.648;8.640;2022-12-18T03:27:42;3.30;;;2.53;;
46086;SDS011;31824;49.648;8.640;2022-12-18T03:30:51;4.47;;;2.75;;
46086;SDS011;31824;49.648;8.640;2022-12-18T03:34:01;4.90;;;2.95;;
46086;SDS011;31824;49.648;8.640;2022-12-18T03:37:14;8.27;;;6.25;;
46086;SDS011;31824;49.648;8.640;2022-12-18T03:40:17;5.65;;;2.35;;
46086;SDS011;31824;49.648;8.640;2022-12-18T03:43:26;5.82;;;4.47;;
46086;SDS011;31824;49.648;8.640;2022-12-18T03:46:41;6.28;;;2.55;;
46086;SDS011;31824;49.648;8.640;2022-12-18T03:49:51;3.88;;;2.17;;
46086;SDS011;31824;49.648;8.640;2022-12-18T03:53:00;3.15;;;2.60;;
46086;SDS011;31824;49.648;8.640;2022-12-18T03:56:08;3.25;;;2.75;;
46086;SDS011;31824;49.648;8.640;2022-12-18T04:02:19;4.68;;;2.83;;
46086;SDS011;31824;49.648;8.640;2022-12-18T04:05:24;3.45;;;2.20;;
46086;SDS011;31824;49.648;8.640;2022-12-18T04:08:28;3.50;;;2.97;;
46086;SDS011;31824;49.648;8.640;2022-12-18T04:11:36;4.70;;;3.05;;
46086;SDS011;31824;49.648;8.640;2022-12-18T04:14:39;4.43;;;3.17;;
46086;SDS011;31824;49.648;8.640;2022-12-18T04:17:46;6.40;;;4.82;;
46086;SDS011;31824;49.648;8.640;2022-12-18T04:20:51;3.28;;;2.97;;
46086;SDS011;31824;49.648;8.640;2022-12-18T04:23:53;4.88;;;2.67;;
46086;SDS011;31824;49.648;8.640;2022-12-18T04:26:56;3.63;;;2.70;;
46086;SDS011;31824;49.648;8.640;2022-12-18T04:30:01;5.57;;;3.92;;
46086;SDS011;31824;49.648;8.640;2022-12-18T04:33:08;5.20;;;4.43;;
46086;SDS011;31824;49.648;8.640;2022-12-18T04:36:11;4.63;;;2.78;;
46086;SDS011;31824;49.648;8.640;2022-12-18T04:39:14;5.93;;;4.22;;
46086;SDS011;31824;49.648;8.640;2022-12-18T04:42:16;2.72;;;1.98;;
46086;SDS011;31824;49.648;8.640;2022-12-18T04:45:18;6.07;;;4.28;;
46086;SDS011;31824;49.648;8.640;2022-12-18T04:48:21;6.18;;;2.15;;
46086;SDS011;31824;49.648;8.640;2022-12-18T04:51:23;7.65;;;3.72;;
46086;SDS011;31824;49.648;8.640;2022-12-18T04:54:27;4.40;;;3.30;;
46086;SDS011;31824;49.648;8.640;2022-12-18T04:57:29;9.38;;;3.15;;
46086;SDS011;31824;49.648;8.640;2022-12-18T05:00:31;4.75;;;3.05;;
46086;SDS011;31824;49.648;8.640;2022-12-18T05:03:34;6.13;;;3.55;;
46086;SDS011;31824;49.648;8.640;2022-12-18T05:06:37;7.80;;;3.42;;
46086;SDS011;31824;49.648;8.640;2022-12-18T05:09:39;4.85;;;3.78;;
46086;SDS011;31824;49.648;8.640;2022-12-18T05:12:40;3.55;;;2.88;;
46086;SDS011;31824;49.648;8.640;2022-12-18T05:16:01;5.50;;;3.92;;
46086;SDS011;31824;49.648;8.640;2022-12-18T05:19:04;3.20;;;2.85;;
46086;SDS011;31824;49.648;8.640;2022-12-18T05:22:06;5.85;;;3.25;;
46086;SDS011;31824;49.648;8.640;2022-12-18T05:25:08;9.25;;;4.95;;
46086;SDS011;31824;49.648;8.640;2022-12-18T05:28:10;6.47;;;3.72;;
46086;SDS011;31824;49.648;8.640;2022-12-18T05:31:11;4.53;;;3.30;;
46086;SDS011;31824;49.648;8.640;2022-12-18T05:34:15;3.40;;;2.45;;
46086;SDS011;31824;49.648;8.640;2022-12-18T05:37:17;4.43;;;2.38;;
46086;SDS011;31824;49.648;8.640;2022-12-18T05:40:19;2.50;;;2.15;;
46086;SDS011;31824;49.648;8.640;2022-12-18T05:43:21;3.55;;;1.83;;
46086;SDS011;31824;49.648;8.640;2022-12-18T05:46:23;4.68;;;3.08;;
46086;SDS011;31824;49.648;8.640;2022-12-18T05:49:27;8.13;;;3.45;;
46086;SDS011;31824;49.648;8.640;2022-12-18T05:52:29;5.50;;;3.80;;
46086;SDS011;31824;49.648;8.640;2022-12-18T05:55:32;4.25;;;2.42;;
46086;SDS011;31824;49.648;8.640;2022-12-18T05:58:34;8.23;;;4.30;;
46086;SDS011;31824;49.648;8.640;2022-12-18T06:01:36;7.03;;;4.18;;
46086;SDS011;31824;49.648;8.640;2022-12-18T06:04:40;5.68;;;3.15;;
46086;SDS011;31824;49.648;8.640;2022-12-18T06:07:41;13.10;;;3.30;;
46086;SDS011;31824;49.648;8.640;2022-12-18T06:10:48;1.75;;;0.98;;
46086;SDS011;31824;49.648;8.640;2022-12-18T06:13:53;5.15;;;2.78;;
46086;SDS011;31824;49.648;8.640;2022-12-18T06:16:59;7.03;;;4.82;;
46086;SDS011;31824;49.648;8.640;2022-12-18T06:20:03;3.42;;;3.10;;
46086;SDS011;31824;49.648;8.640;2022-12-18T06:23:05;5.43;;;3.20;;
46086;SDS011;31824;49.648;8.640;2022-12-18T06:26:08;5.57;;;2.55;;
46086;SDS011;31824;49.648;8.640;2022-12-18T06:29:11;3.20;;;1.92;;
46086;SDS011;31824;49.648;8.640;2022-12-18T06:32:12;8.38;;;3.63;;
46086;SDS011;31824;49.648;8.640;2022-12-18T06:35:16;5.55;;;3.28;;
46086;SDS011;31824;49.648;8.640;2022-12-18T06:38:18;6.63;;;4.20;;
46086;SDS011;31824;49.648;8.640;2022-12-18T06:41:20;1.48;;;1.13;;
46086;SDS011;31824;49.648;8.640;2022-12-18T06:44:22;4.20;;;1.65;;
46086;SDS011;31824;49.648;8.640;2022-12-18T06:47:24;5.72;;;3.25;;
46086;SDS011;31824;49.648;8.640;2022-12-18T06:50:27;3.75;;;2.80;;
46086;SDS011;31824;49.648;8.640;2022-12-18T06:53:29;5.70;;;3.85;;
46086;SDS011;31824;49.648;8.640;2022-12-18T06:56:31;6.10;;;4.15;;
46086;SDS011;31824;49.648;8.640;2022-12-18T06:59:32;5.22;;;4.25;;
46086;SDS011;31824;49.648;8.640;2022-12-18T07:02:34;4.28;;;3.05;;
46086;SDS011;31824;49.648;8.640;2022-12-18T07:05:40;6.22;;;3.47;;
46086;SDS011;31824;49.648;8.640;2022-12-18T07:08:42;3.75;;;2.67;;
46086;SDS011;31824;49.648;8.640;2022-12-18T07:11:44;3.65;;;2.72;;
46086;SDS011;31824;49.648;8.640;2022-12-18T07:14:46;9.27;;;4.43;;
46086;SDS011;31824;49.648;8.640;2022-12-18T07:17:48;4.63;;;2.47;;
46086;SDS011;31824;49.648;8.640;2022-12-18T07:20:51;6.65;;;3.75;;
46086;SDS011;31824;49.648;8.640;2022-12-18T07:23:53;5.57;;;3.13;;
46086;SDS011;31824;49.648;8.640;2022-12-18T07:26:55;8.52;;;5.65;;
46086;SDS011;31824;49.648;8.640;2022-12-18T07:29:56;4.85;;;2.47;;
46086;SDS011;31824;49.648;8.640;2022-12-18T07:32:58;4.03;;;1.85;;
46086;SDS011;31824;49.648;8.640;2022-12-18T07:36:01;4.13;;;3.72;;
46086;SDS011;31824;49.648;8.640;2022-12-18T07:39:05;11.75;;;4.60;;
46086;SDS011;31824;49.648;8.640;2022-12-18T07:42:07;2.42;;;1.90;;
46086;SDS011;31824;49.648;8.640;2022-12-18T07:45:31;3.85;;;3.10;;
46086;SDS011;31824;49.648;8.640;2022-12-18T07:48:32;10.15;;;4.18;;
46086;SDS011;31824;49.648;8.640;2022-12-18T07:51:36;3.05;;;1.83;;
46086;SDS011;31824;49.648;8.640;2022-12-18T07:54:37;11.02;;;5.57;;
46086;SDS011;31824;49.648;8.640;2022-12-18T07:57:39;7.03;;;4.43;;
46086;SDS011;31824;49.648;8.640;2022-12-18T08:00:52;2.38;;;2.17;;
46086;SDS011;31824;49.648;8.640;2022-12-18T08:03:54;9.13;;;5.00;;
46086;SDS011;31824;49.648;8.640;2022-12-18T08:06:57;5.15;;;4.53;;
46086;SDS011;31824;49.648;8.640;2022-12-18T08:09:59;9.27;;;4.65;;
46086;SDS011;31824;49.648;8.640;2022-12-18T08:13:00;5.28;;;3.25;;
46086;SDS011;31824;49.648;8.640;2022-12-18T08:16:06;4.18;;;2.78;;
46086;SDS011;31824;49.648;8.640;2022-12-18T08:19:08;5.57;;;3.13;;
46086;SDS011;31824;49.648;8.640;2022-12-18T08:22:11;3.50;;;2.30;;
46086;SDS011;31824;49.648;8.640;2022-12-18T08:25:13;4.90;;;3.78;;
46086;SDS011;31824;49.648;8.640;2022-12-18T08:28:15;6.35;;;4.65;;
46086;SDS011;31824;49.648;8.640;2022-12-18T08:31:18;8.05;;;4.13;;
46086;SDS011;31824;49.648;8.640;2022-12-18T08:34:21;2.92;;;1.85;;
46086;SDS011;31824;49.648;8.640;2022-12-18T08:37:24;9.30;;;3.60;;
46086;SDS011;31824;49.648;8.640;2022-12-18T08:40:26;5.82;;;3.45;;
46086;SDS011;31824;49.648;8.640;2022-12-18T08:43:28;7.75;;;4.43;;
46086;SDS011;31824;49.648;8.640;2022-12-18T08:46:48;4.43;;;2.40;;
46086;SDS011;31824;49.648;8.640;2022-12-18T08:49:50;7.18;;;3.35;;
46086;SDS011;31824;49.648;8.640;2022-12-18T08:52:53;7.55;;;4.30;;
46086;SDS011;31824;49.648;8.640;2022-12-18T08:55:56;5.53;;;4.82;;
46086;SDS011;31824;49.648;8.640;2022-12-18T08:58:58;4.00;;;3.15;;
46086;SDS011;31824;49.648;8.640;2022-12-18T09:02:00;7.25;;;3.85;;
46086;SDS011;31824;49.648;8.640;2022-12-18T09:05:02;3.72;;;3.08;;
46086;SDS011;31824;49.648;8.640;2022-12-18T09:08:06;9.27;;;4.82;;
46086;SDS011;31824;49.648;8.640;2022-12-18T09:11:11;8.35;;;3.88;;
46086;SDS011;31824;49.648;8.640;2022-12-18T09:14:15;4.18;;;3.42;;
46086;SDS011;31824;49.648;8.640;2022-12-18T09:17:17;8.07;;;5.47;;
46086;SDS011;31824;49.648;8.640;2022-12-18T09:20:19;7.00;;;5.38;;
46086;SDS011;31824;49.648;8.640;2022-12-18T09:23:22;7.53;;;5.18;;
46086;SDS011;31824;49.648;8.640;2022-12-18T09:26:24;8.20;;;6.22;;
46086;SDS011;31824;49.648;8.640;2022-12-18T09:29:27;17.08;;;4.85;;
46086;SDS011;31824;49.648;8.640;2022-12-18T09:32:29;6.95;;;4.47;;
46086;SDS011;31824;49.648;8.640;2022-12-18T09:35:31;2.70;;;1.90;;
46086;SDS011;31824;49.648;8.640;2022-12-18T09:38:40;9.60;;;3.45;;
46086;SDS011;31824;49.648;8.640;2022-12-18T09:41:44;9.07;;;4.65;;
46086;SDS011;31824;49.648;8.640;2022-12-18T09:44:49;3.08;;;2.65;;
46086;SDS011;31824;49.648;8.640;2022-12-18T09:47:52;7.88;;;3.08;;
46086;SDS011;31824;49.648;8.640;2022-12-18T09:50:57;4.70;;;3.50;;
46086;SDS011;31824;49.648;8.640;2022-12-18T09:54:04;9.35;;;5.68;;
46086;SDS011;31824;49.648;8.640;2022-12-18T09:57:10;7.35;;;3.20;;
46086;SDS011;31824;49.648;8.640;2022-12-18T10:00:16;4.70;;;3.13;;
46086;SDS011;31824;49.648;8.640;2022-12-18T10:03:21;14.20;;;4.43;;
46086;SDS011;31824;49.648;8.640;2022-12-18T10:06:23;5.65;;;3.63;;
46086;SDS011;31824;49.648;8.640;2022-12-18T10:09:32;5.57;;;3.00;;
46086;SDS011;31824;49.648;8.640;2022-12-18T10:12:39;7.47;;;4.43;;
46086;SDS011;31824;49.648;8.640;2022-12-18T10:15:52;2.03;;;1.75;;
46086;SDS011;31824;49.648;8.640;2022-12-18T10:19:08;11.60;;;4.45;;
46086;SDS011;31824;49.648;8.640;2022-12-18T10:22:22;7.47;;;4.90;;
46086;SDS011;31824;49.648;8.640;2022-12-18T10:25:33;8.07;;;4.95;;
46086;SDS011;31824;49.648;8.640;2022-12-18T10:28:39;10.98;;;5.93;;
46086;SDS011;31824;49.648;8.640;2022-12-18T10:31:43;10.40;;;5.55;;
46086;SDS011;31824;49.648;8.640;2022-12-18T10:34:45;10.75;;;6.85;;
46086;SDS011;31824;49.648;8.640;2022-12-18T10:38:00;9.93;;;5.88;;
46086;SDS011;31824;49.648;8.640;2022-12-18T10:41:08;7.82;;;4.30;;
46086;SDS011;31824;49.648;8.640;2022-12-18T10:44:28;10.25;;;5.32;;
46086;SDS011;31824;49.648;8.640;2022-12-18T10:47:29;7.75;;;4.88;;
46086;SDS011;31824;49.648;8.640;2022-12-18T10:50:32;11.80;;;6.53;;
46086;SDS011;31824;49.648;8.640;2022-12-18T10:53:56;11.98;;;4.18;;
46086;SDS011;31824;49.648;8.640;2022-12-18T10:57:15;13.52;;;6.32;;
46086;SDS011;31824;49.648;8.640;2022-12-18T11:00:31;7.68;;;3.17;;
46086;SDS011;31824;49.648;8.640;2022-12-18T11:03:33;16.25;;;6.82;;
46086;SDS011;31824;49.648;8.640;2022-12-18T11:06:52;12.02;;;7.60;;
46086;SDS011;31824;49.648;8.640;2022-12-18T11:10:00;9.60;;;5.43;;
46086;SDS011;31824;49.648;8.640;2022-12-18T11:13:16;15.70;;;7.28;;
46086;SDS011;31824;49.648;8.640;2022-12-18T11:16:20;4.93;;;3.15;;
46086;SDS011;31824;49.648;8.640;2022-12-18T11:19:26;9.80;;;5.72;;
46086;SDS011;31824;49.648;8.640;2022-12-18T11:22:33;10.88;;;6.07;;
46086;SDS011;31824;49.648;8.640;2022-12-18T11:25:37;10.23;;;4.35;;
46086;SDS011;31824;49.648;8.640;2022-12-18T11:28:41;10.75;;;6.32;;
46086;SDS011;31824;49.648;8.640;2022-12-18T11:31:46;7.60;;;4.95;;
46086;SDS011;31824;49.648;8.640;2022-12-18T11:34:49;13.50;;;7.00;;
46086;SDS011;31824;49.648;8.640;2022-12-18T11:38:01;10.93;;;4.78;;
46086;SDS011;31824;49.648;8.640;2022-12-18T11:41:09;13.45;;;5.93;;
46086;SDS011;31824;49.648;8.640;2022-12-18T11:44:22;10.15;;;5.90;;
46086;SDS011;31824;49.648;8.640;2022-12-18T11:47:29;12.75;;;6.18;;
46086;SDS011;31824;49.648;8.640;2022-12-18T11:50:41;9.20;;;3.95;;
46086;SDS011;31824;49.648;8.640;2022-12-18T11:53:47;10.68;;;7.55;;
46086;SDS011;31824;49.648;8.640;2022-12-18T11:56:50;9.00;;;5.35;;
46086;SDS011;31824;49.648;8.640;2022-12-18T12:00:01;11.30;;;5.97;;
46086;SDS011;31824;49.648;8.640;2022-12-18T12:03:19;12.50;;;6.38;;
46086;SDS011;31824;49.648;8.640;2022-12-18T12:06:30;16.35;;;6.18;;
46086;SDS011;31824;49.648;8.640;2022-12-18T12:09:43;15.35;;;7.13;;
46086;SDS011;31824;49.648;8.640;2022-12-18T12:13:04;12.50;;;6.25;;
46086;SDS011;31824;49.648;8.640;2022-12-18T12:16:20;12.20;;;7.05;;
46086;SDS011;31824;49.648;8.640;2022-12-18T12:19:33;9.13;;;5.72;;
46086;SDS011;31824;49.648;8.640;2022-12-18T12:22:41;21.95;;;7.28;;
46086;SDS011;31824;49.648;8.640;2022-12-18T12:26:06;11.40;;;4.78;;
46086;SDS011;31824;49.648;8.640;2022-12-18T12:29:18;9.00;;;7.05;;
46086;SDS011;31824;49.648;8.640;2022-12-18T12:32:35;9.43;;;5.32;;
46086;SDS011;31824;49.648;8.640;2022-12-18T12:35:50;7.20;;;4.50;;
46086;SDS011;31824;49.648;8.640;2022-12-18T12:38:57;16.98;;;6.63;;
46086;SDS011;31824;49.648;8.640;2022-12-18T12:42:03;11.88;;;2.30;;
46086;SDS011;31824;49.648;8.640;2022-12-18T12:45:27;10.25;;;4.00;;
46086;SDS011;31824;49.648;8.640;2022-12-18T12:48:37;15.52;;;8.20;;
46086;SDS011;31824;49.648;8.640;2022-12-18T12:51:46;13.68;;;7.57;;
46086;SDS011;31824;49.648;8.640;2022-12-18T12:54:55;13.50;;;7.75;;
46086;SDS011;31824;49.648;8.640;2022-12-18T12:58:02;9.48;;;5.88;;
46086;SDS011;31824;49.648;8.640;2022-12-18T13:01:11;12.43;;;6.72;;
46086;SDS011;31824;49.648;8.640;2022-12-18T13:04:26;18.73;;;7.43;;
46086;SDS011;31824;49.648;8.640;2022-12-18T13:07:37;10.80;;;6.70;;
46086;SDS011;31824;49.648;8.640;2022-12-18T13:10:42;11.57;;;5.93;;
46086;SDS011;31824;49.648;8.640;2022-12-18T13:13:48;12.80;;;6.30;;
46086;SDS011;31824;49.648;8.640;2022-12-18T13:16:52;12.02;;;7.03;;
46086;SDS011;31824;49.648;8.640;2022-12-18T13:20:34;14.52;;;7.93;;
46086;SDS011;31824;49.648;8.640;2022-12-18T13:23:37;12.25;;;7.00;;
46086;SDS011;31824;49.648;8.640;2022-12-18T13:26:40;5.70;;;3.88;;
46086;SDS011;31824;49.648;8.640;2022-12-18T13:29:43;13.25;;;6.18;;
46086;SDS011;31824;49.648;8.640;2022-12-18T13:32:47;10.40;;;4.78;;
46086;SDS011;31824;49.648;8.640;2022-12-18T13:36:00;9.77;;;6.20;;
46086;SDS011;31824;49.648;8.640;2022-12-18T13:39:23;7.07;;;4.18;;
46086;SDS011;31824;49.648;8.640;2022-12-18T13:42:38;14.13;;;5.15;;
46086;SDS011;31824;49.648;8.640;2022-12-18T13:49:03;9.93;;;6.05;;
46086;SDS011;31824;49.648;8.640;2022-12-18T13:52:24;7.40;;;5.03;;
46086;SDS011;31824;49.648;8.640;2022-12-18T13:55:29;7.00;;;5.25;;
46086;SDS011;31824;49.648;8.640;2022-12-18T13:58:31;13.23;;;6.25;;
46086;SDS011;31824;49.648;8.640;2022-12-18T14:01:32;13.82;;;7.88;;
46086;SDS011;31824;49.648;8.640;2022-12-18T14:04:35;10.73;;;6.47;;
46086;SDS011;31824;49.648;8.640;2022-12-18T14:07:38;13.00;;;7.10;;
46086;SDS011;31824;49.648;8.640;2022-12-18T14:10:48;12.18;;;7.78;;
46086;SDS011;31824;49.648;8.640;2022-12-18T14:13:52;10.18;;;5.20;;
46086;SDS011;31824;49.648;8.640;2022-12-18T14:16:54;9.80;;;5.45;;
46086;SDS011;31824;49.648;8.640;2022-12-18T14:19:56;11.52;;;6.65;;
46086;SDS011;31824;49.648;8.640;2022-12-18T14:23:00;11.15;;;6.07;;
46086;SDS011;31824;49.648;8.640;2022-12-18T14:26:03;10.70;;;5.47;;
46086;SDS011;31824;49.648;8.640;2022-12-18T14:29:23;11.25;;;7.55;;
46086;SDS011;31824;49.648;8.640;2022-12-18T14:32:26;8.80;;;5.63;;
46086;SDS011;31824;49.648;8.640;2022-12-18T14:35:28;9.68;;;5.70;;
46086;SDS011;31824;49.648;8.640;2022-12-18T14:38:32;12.50;;;6.20;;
46086;SDS011;31824;49.648;8.640;2022-12-18T14:41:35;13.20;;;7.30;;
46086;SDS011;31824;49.648;8.640;2022-12-18T14:44:40;11.73;;;6.28;;
46086;SDS011;31824;49.648;8.640;2022-12-18T14:48:05;8.95;;;4.65;;
46086;SDS011;31824;49.648;8.640;2022-12-18T14:51:14;7.80;;;5.63;;
46086;SDS011;31824;49.648;8.640;2022-12-18T14:54:22;12.18;;;4.75;;
46086;SDS011;31824;49.648;8.640;2022-12-18T14:57:25;6.00;;;4.60;;
46086;SDS011;31824;49.648;8.640;2022-12-18T15:00:33;10.20;;;6.43;;
46086;SDS011;31824;49.648;8.640;2022-12-18T15:03:42;10.55;;;6.20;;
46086;SDS011;31824;49.648;8.640;2022-12-18T15:06:45;12.57;;;7.97;;
46086;SDS011;31824;49.648;8.640;2022-12-18T15:10:02;11.43;;;6.72;;
46086;SDS011;31824;49.648;8.640;2022-12-18T15:13:15;14.88;;;7.07;;
46086;SDS011;31824;49.648;8.640;2022-12-18T15:16:23;18.70;;;6.53;;
46086;SDS011;31824;49.648;8.640;2022-12-18T15:19:28;10.13;;;6.57;;
46086;SDS011;31824;49.648;8.640;2022-12-18T15:25:39;9.07;;;4.63;;
46086;SDS011;31824;49.648;8.640;2022-12-18T15:28:43;12.55;;;4.97;;
46086;SDS011;31824;49.648;8.640;2022-12-18T15:31:57;15.55;;;6.30;;
46086;SDS011;31824;49.648;8.640;2022-12-18T15:35:07;13.02;;;6.07;;
46086;SDS011;31824;49.648;8.640;2022-12-18T15:38:14;11.80;;;6.55;;
46086;SDS011;31824;49.648;8.640;2022-12-18T15:41:18;14.32;;;7.40;;
46086;SDS011;31824;49.648;8.640;2022-12-18T15:44:25;10.38;;;6.70;;
46086;SDS011;31824;49.648;8.640;2022-12-18T15:47:26;11.77;;;7.97;;
46086;SDS011;31824;49.648;8.640;2022-12-18T15:50:29;11.50;;;6.63;;
46086;SDS011;31824;49.648;8.640;2022-12-18T15:53:32;8.63;;;6.28;;
46086;SDS011;31824;49.648;8.640;2022-12-18T15:56:36;9.40;;;5.95;;
46086;SDS011;31824;49.648;8.640;2022-12-18T15:59:57;15.27;;;8.27;;
46086;SDS011;31824;49.648;8.640;2022-12-18T16:02:59;12.63;;;6.25;;
46086;SDS011;31824;49.648;8.640;2022-12-18T16:06:02;11.48;;;6.40;;
46086;SDS011;31824;49.648;8.640;2022-12-18T16:09:04;10.73;;;6.10;;
46086;SDS011;31824;49.648;8.640;2022-12-18T16:12:08;9.75;;;4.90;;
46086;SDS011;31824;49.648;8.640;2022-12-18T16:15:16;19.08;;;7.15;;
46086;SDS011;31824;49.648;8.640;2022-12-18T16:18:25;15.25;;;8.88;;
46086;SDS011;31824;49.648;8.640;2022-12-18T16:21:27;14.93;;;8.68;;
46086;SDS011;31824;49.648;8.640;2022-12-18T16:24:34;18.27;;;7.72;;
46086;SDS011;31824;49.648;8.640;2022-12-18T16:27:38;17.58;;;9.82;;
46086;SDS011;31824;49.648;8.640;2022-12-18T16:30:40;16.30;;;8.18;;
46086;SDS011;31824;49.648;8.640;2022-12-18T16:33:42;14.70;;;7.55;;
46086;SDS011;31824;49.648;8.640;2022-12-18T16:36:44;20.95;;;9.43;;
46086;SDS011;31824;49.648;8.640;2022-12-18T16:39:46;16.58;;;9.95;;
46086;SDS011;31824;49.648;8.640;2022-12-18T16:42:49;12.55;;;7.13;;
46086;SDS011;31824;49.648;8.640;2022-12-18T16:45:51;17.10;;;7.43;;
46086;SDS011;31824;49.648;8.640;2022-12-18T16:48:53;17.08;;;8.38;;
46086;SDS011;31824;49.648;8.640;2022-12-18T16:51:55;19.08;;;7.93;;
46086;SDS011;31824;49.648;8.640;2022-12-18T16:54:56;15.32;;;7.78;;
46086;SDS011;31824;49.648;8.640;2022-12-18T16:57:59;13.05;;;7.22;;
46086;SDS011;31824;49.648;8.640;2022-12-18T17:01:06;10.43;;;7.47;;
46086;SDS011;31824;49.648;8.640;2022-12-18T17:04:08;12.25;;;7.63;;
46086;SDS011;31824;49.648;8.640;2022-12-18T17:07:10;20.75;;;7.93;;
46086;SDS011;31824;49.648;8.640;2022-12-18T17:10:13;17.40;;;7.93;;
46086;SDS011;31824;49.648;8.640;2022-12-18T17:13:16;15.82;;;8.88;;
46086;SDS011;31824;49.648;8.640;2022-12-18T17:16:25;16.85;;;8.75;;
46086;SDS011;31824;49.648;8.640;2022-12-18T17:19:27;12.45;;;8.23;;
46086;SDS011;31824;49.648;8.640;2022-12-18T17:22:29;11.70;;;7.40;;
46086;SDS011;31824;49.648;8.640;2022-12-18T17:25:31;17.50;;;8.57;;
46086;SDS011;31824;49.648;8.640;2022-12-18T17:28:34;24.40;;;8.85;;
46086;SDS011;31824;49.648;8.640;2022-12-18T17:31:37;13.27;;;8.50;;
46086;SDS011;31824;49.648;8.640;2022-12-18T17:34:39;11.15;;;7.70;;
46086;SDS011;31824;49.648;8.640;2022-12-18T17:37:41;12.68;;;7.85;;
46086;SDS011;31824;49.648;8.640;2022-12-18T17:40:43;15.75;;;8.05;;
46086;SDS011;31824;49.648;8.640;2022-12-18T17:43:51;16.77;;;10.15;;
46086;SDS011;31824;49.648;8.640;2022-12-18T17:49:54;11.38;;;5.70;;
46086;SDS011;31824;49.648;8.640;2022-12-18T17:52:57;16.00;;;6.55;;
46086;SDS011;31824;49.648;8.640;2022-12-18T17:55:59;20.88;;;8.45;;
46086;SDS011;31824;49.648;8.640;2022-12-18T17:59:04;9.35;;;6.28;;
46086;SDS011;31824;49.648;8.640;2022-12-18T18:02:08;12.27;;;6.05;;
46086;SDS011;31824;49.648;8.640;2022-12-18T18:05:12;19.02;;;6.90;;
46086;SDS011;31824;49.648;8.640;2022-12-18T18:08:18;14.15;;;8.60;;
46086;SDS011;31824;49.648;8.640;2022-12-18T18:11:20;29.42;;;6.82;;
46086;SDS011;31824;49.648;8.640;2022-12-18T18:14:58;15.43;;;6.93;;
46086;SDS011;31824;49.648;8.640;2022-12-18T18:18:00;18.33;;;9.07;;
46086;SDS011;31824;49.648;8.640;2022-12-18T18:21:02;12.98;;;9.05;;
46086;SDS011;31824;49.648;8.640;2022-12-18T18:24:06;19.33;;;8.70;;
46086;SDS011;31824;49.648;8.640;2022-12-18T18:27:08;12.82;;;6.80;;
46086;SDS011;31824;49.648;8.640;2022-12-18T18:30:12;13.85;;;8.70;;
46086;SDS011;31824;49.648;8.640;2022-12-18T18:33:14;22.05;;;11.45;;
46086;SDS011;31824;49.648;8.640;2022-12-18T18:36:16;15.45;;;7.82;;
46086;SDS011;31824;49.648;8.640;2022-12-18T18:39:18;19.20;;;9.80;;
46086;SDS011;31824;49.648;8.640;2022-12-18T18:42:20;10.98;;;7.60;;
46086;SDS011;31824;49.648;8.640;2022-12-18T18:45:23;23.85;;;9.77;;
46086;SDS011;31824;49.648;8.640;2022-12-18T18:48:25;11.18;;;6.07;;
46086;SDS011;31824;49.648;8.640;2022-12-18T18:51:30;14.05;;;8.15;;
46086;SDS011;31824;49.648;8.640;2022-12-18T18:54:35;11.30;;;8.10;;